sensor_id;sensor_type;location;lat;lon;timestamp;P1;durP1;ratioP1;P2;durP2;ratioP2
7150;SDS011;3617;48.836;9.172;2023-07-24T00:02:12;5.97;;;3.00;;
7150;SDS011;3617;48.836;9.172;2023-07-24T00:04:39;4.67;;;3.03;;
7150;SDS011;3617;48.836;9.172;2023-07-24T00:07:05;5.23;;;3.03;;
7150;SDS011;3617;48.836;9.172;2023-07-24T00:09:31;6.50;;;3.07;;
7150;SDS011;3617;48.836;9.172;2023-07-24T00:11:57;6.63;;;2.77;;
7150;SDS011;3617;48.836;9.172;2023-07-24T00:14:23;5.83;;;3.27;;
7150;SDS011;3617;48.836;9.172;2023-07-24T00:16:49;8.97;;;3.20;;
7150;SDS011;3617;48.836;9.172;2023-07-24T00:19:15;5.10;;;3.07;;
7150;SDS011;3617;48.836;9.172;2023-07-24T00:21:41;6.43;;;3.10;;
7150;SDS011;3617;48.836;9.172;2023-07-24T00:24:07;5.20;;;3.00;;
7150;SDS011;3617;48.836;9.172;2023-07-24T00:26:33;5.80;;;2.67;;
7150;SDS011;3617;48.836;9.172;2023-07-24T00:28:59;5.43;;;2.87;;
7150;SDS011;3617;48.836;9.172;2023-07-24T00:31:25;7.33;;;3.00;;
7150;SDS011;3617;48.836;9.172;2023-07-24T00:33:51;7.20;;;3.23;;
7150;SDS011;3617;48.836;9.172;2023-07-24T00:36:17;5.70;;;3.03;;
7150;SDS011;3617;48.836;9.172;2023-07-24T00:38:43;6.27;;;3.30;;
7150;SDS011;3617;48.836;9.172;2023-07-24T00:41:09;5.97;;;3.27;;
7150;SDS011;3617;48.836;9.172;2023-07-24T00:43:35;5.73;;;2.67;;
7150;SDS011;3617;48.836;9.172;2023-07-24T00:46:01;7.97;;;2.80;;
7150;SDS011;3617;48.836;9.172;2023-07-24T00:48:28;4.30;;;2.70;;
7150;SDS011;3617;48.836;9.172;2023-07-24T00:50:54;4.10;;;2.50;;
7150;SDS011;3617;48.836;9.172;2023-07-24T00:53:21;6.13;;;3.00;;
7150;SDS011;3617;48.836;9.172;2023-07-24T00:55:47;5.93;;;3.73;;
7150;SDS011;3617;48.836;9.172;2023-07-24T00:58:14;4.53;;;2.73;;
7150;SDS011;3617;48.836;9.172;2023-07-24T01:00:42;7.10;;;3.30;;
7150;SDS011;3617;48.836;9.172;2023-07-24T01:03:08;5.03;;;3.30;;
7150;SDS011;3617;48.836;9.172;2023-07-24T01:05:37;7.00;;;3.07;;
7150;SDS011;3617;48.836;9.172;2023-07-24T01:08:03;8.07;;;3.63;;
7150;SDS011;3617;48.836;9.172;2023-07-24T01:10:29;4.93;;;3.07;;
7150;SDS011;3617;48.836;9.172;2023-07-24T01:17:57;6.20;;;3.37;;
7150;SDS011;3617;48.836;9.172;2023-07-24T01:20:25;6.60;;;3.17;;
7150;SDS011;3617;48.836;9.172;2023-07-24T01:25:42;7.17;;;3.37;;
7150;SDS011;3617;48.836;9.172;2023-07-24T01:28:08;7.43;;;3.03;;
7150;SDS011;3617;48.836;9.172;2023-07-24T01:30:34;6.53;;;3.30;;
7150;SDS011;3617;48.836;9.172;2023-07-24T01:33:01;7.70;;;3.73;;
7150;SDS011;3617;48.836;9.172;2023-07-24T01:35:27;6.90;;;3.03;;
7150;SDS011;3617;48.836;9.172;2023-07-24T01:37:53;5.73;;;3.13;;
7150;SDS011;3617;48.836;9.172;2023-07-24T01:40:20;5.77;;;3.07;;
7150;SDS011;3617;48.836;9.172;2023-07-24T01:42:47;6.47;;;3.47;;
7150;SDS011;3617;48.836;9.172;2023-07-24T01:45:14;7.73;;;3.53;;
7150;SDS011;3617;48.836;9.172;2023-07-24T01:47:40;6.70;;;3.13;;
7150;SDS011;3617;48.836;9.172;2023-07-24T01:50:06;6.53;;;3.77;;
7150;SDS011;3617;48.836;9.172;2023-07-24T01:52:33;4.93;;;2.73;;
7150;SDS011;3617;48.836;9.172;2023-07-24T01:54:59;6.37;;;3.07;;
7150;SDS011;3617;48.836;9.172;2023-07-24T01:57:25;6.07;;;2.70;;
7150;SDS011;3617;48.836;9.172;2023-07-24T01:59:51;5.50;;;2.97;;
7150;SDS011;3617;48.836;9.172;2023-07-24T02:02:16;5.37;;;3.23;;
7150;SDS011;3617;48.836;9.172;2023-07-24T02:04:42;5.70;;;3.40;;
7150;SDS011;3617;48.836;9.172;2023-07-24T02:07:08;5.20;;;2.97;;
7150;SDS011;3617;48.836;9.172;2023-07-24T02:09:35;5.30;;;3.23;;
7150;SDS011;3617;48.836;9.172;2023-07-24T02:12:01;5.63;;;3.20;;
7150;SDS011;3617;48.836;9.172;2023-07-24T02:14:27;8.17;;;3.53;;
7150;SDS011;3617;48.836;9.172;2023-07-24T02:16:53;7.80;;;3.23;;
7150;SDS011;3617;48.836;9.172;2023-07-24T02:19:19;6.77;;;3.37;;
7150;SDS011;3617;48.836;9.172;2023-07-24T02:21:45;4.70;;;3.00;;
7150;SDS011;3617;48.836;9.172;2023-07-24T02:24:11;6.87;;;3.53;;
7150;SDS011;3617;48.836;9.172;2023-07-24T02:26:37;6.30;;;3.70;;
7150;SDS011;3617;48.836;9.172;2023-07-24T02:29:03;5.43;;;3.00;;
7150;SDS011;3617;48.836;9.172;2023-07-24T02:31:29;10.07;;;3.40;;
7150;SDS011;3617;48.836;9.172;2023-07-24T02:33:55;6.93;;;3.50;;
7150;SDS011;3617;48.836;9.172;2023-07-24T02:36:21;4.90;;;2.70;;
7150;SDS011;3617;48.836;9.172;2023-07-24T02:38:47;7.40;;;3.20;;
7150;SDS011;3617;48.836;9.172;2023-07-24T02:41:13;5.37;;;3.27;;
7150;SDS011;3617;48.836;9.172;2023-07-24T02:43:39;6.97;;;3.63;;
7150;SDS011;3617;48.836;9.172;2023-07-24T02:46:05;9.90;;;3.67;;
7150;SDS011;3617;48.836;9.172;2023-07-24T02:48:31;4.77;;;3.23;;
7150;SDS011;3617;48.836;9.172;2023-07-24T02:50:57;6.70;;;3.70;;
7150;SDS011;3617;48.836;9.172;2023-07-24T02:53:23;5.83;;;3.27;;
7150;SDS011;3617;48.836;9.172;2023-07-24T02:55:49;8.00;;;3.10;;
7150;SDS011;3617;48.836;9.172;2023-07-24T02:58:15;6.83;;;2.93;;
7150;SDS011;3617;48.836;9.172;2023-07-24T03:00:41;6.07;;;3.27;;
7150;SDS011;3617;48.836;9.172;2023-07-24T03:03:07;8.67;;;3.63;;
7150;SDS011;3617;48.836;9.172;2023-07-24T03:05:33;5.00;;;2.97;;
7150;SDS011;3617;48.836;9.172;2023-07-24T03:08:00;4.37;;;2.67;;
7150;SDS011;3617;48.836;9.172;2023-07-24T03:10:26;4.80;;;2.97;;
7150;SDS011;3617;48.836;9.172;2023-07-24T03:12:52;5.47;;;3.00;;
7150;SDS011;3617;48.836;9.172;2023-07-24T03:15:18;5.90;;;2.83;;
7150;SDS011;3617;48.836;9.172;2023-07-24T03:17:44;6.83;;;3.43;;
7150;SDS011;3617;48.836;9.172;2023-07-24T03:20:14;7.43;;;3.67;;
7150;SDS011;3617;48.836;9.172;2023-07-24T03:22:40;8.27;;;3.20;;
7150;SDS011;3617;48.836;9.172;2023-07-24T03:25:06;5.07;;;3.27;;
7150;SDS011;3617;48.836;9.172;2023-07-24T03:27:32;7.57;;;3.67;;
7150;SDS011;3617;48.836;9.172;2023-07-24T03:29:58;4.10;;;2.60;;
7150;SDS011;3617;48.836;9.172;2023-07-24T03:32:24;6.40;;;3.40;;
7150;SDS011;3617;48.836;9.172;2023-07-24T03:34:50;8.63;;;3.20;;
7150;SDS011;3617;48.836;9.172;2023-07-24T03:37:17;5.17;;;2.80;;
7150;SDS011;3617;48.836;9.172;2023-07-24T03:39:43;5.60;;;3.30;;
7150;SDS011;3617;48.836;9.172;2023-07-24T03:42:12;4.03;;;3.10;;
7150;SDS011;3617;48.836;9.172;2023-07-24T03:44:41;6.13;;;3.47;;
7150;SDS011;3617;48.836;9.172;2023-07-24T03:47:07;5.93;;;2.97;;
7150;SDS011;3617;48.836;9.172;2023-07-24T03:49:33;4.90;;;2.77;;
7150;SDS011;3617;48.836;9.172;2023-07-24T03:51:59;5.83;;;3.07;;
7150;SDS011;3617;48.836;9.172;2023-07-24T03:54:25;5.87;;;3.37;;
7150;SDS011;3617;48.836;9.172;2023-07-24T03:56:51;8.20;;;4.00;;
7150;SDS011;3617;48.836;9.172;2023-07-24T03:59:17;5.77;;;2.93;;
7150;SDS011;3617;48.836;9.172;2023-07-24T04:01:43;6.43;;;3.60;;
7150;SDS011;3617;48.836;9.172;2023-07-24T04:04:09;7.20;;;3.30;;
7150;SDS011;3617;48.836;9.172;2023-07-24T04:06:35;7.33;;;3.63;;
7150;SDS011;3617;48.836;9.172;2023-07-24T04:09:01;5.03;;;3.33;;
7150;SDS011;3617;48.836;9.172;2023-07-24T04:11:27;4.80;;;2.90;;
7150;SDS011;3617;48.836;9.172;2023-07-24T04:13:53;4.90;;;2.93;;
7150;SDS011;3617;48.836;9.172;2023-07-24T04:16:19;7.80;;;2.77;;
7150;SDS011;3617;48.836;9.172;2023-07-24T04:18:45;4.53;;;2.80;;
7150;SDS011;3617;48.836;9.172;2023-07-24T04:21:11;5.77;;;3.43;;
7150;SDS011;3617;48.836;9.172;2023-07-24T04:23:37;5.23;;;3.10;;
7150;SDS011;3617;48.836;9.172;2023-07-24T04:26:03;5.93;;;3.33;;
7150;SDS011;3617;48.836;9.172;2023-07-24T04:28:29;7.70;;;3.67;;
7150;SDS011;3617;48.836;9.172;2023-07-24T04:30:55;7.57;;;3.50;;
7150;SDS011;3617;48.836;9.172;2023-07-24T04:33:21;6.47;;;3.43;;
7150;SDS011;3617;48.836;9.172;2023-07-24T04:35:52;7.37;;;3.67;;
7150;SDS011;3617;48.836;9.172;2023-07-24T04:38:18;6.80;;;3.03;;
7150;SDS011;3617;48.836;9.172;2023-07-24T04:40:44;7.93;;;3.37;;
7150;SDS011;3617;48.836;9.172;2023-07-24T04:43:10;6.40;;;3.47;;
7150;SDS011;3617;48.836;9.172;2023-07-24T04:45:36;5.73;;;3.33;;
7150;SDS011;3617;48.836;9.172;2023-07-24T04:48:02;8.63;;;4.07;;
7150;SDS011;3617;48.836;9.172;2023-07-24T04:50:28;9.50;;;4.00;;
7150;SDS011;3617;48.836;9.172;2023-07-24T04:52:54;6.77;;;3.60;;
7150;SDS011;3617;48.836;9.172;2023-07-24T04:55:21;7.93;;;3.27;;
7150;SDS011;3617;48.836;9.172;2023-07-24T04:57:47;7.00;;;3.47;;
7150;SDS011;3617;48.836;9.172;2023-07-24T05:00:13;5.10;;;2.83;;
7150;SDS011;3617;48.836;9.172;2023-07-24T05:02:40;7.00;;;4.00;;
7150;SDS011;3617;48.836;9.172;2023-07-24T05:05:06;7.83;;;3.80;;
7150;SDS011;3617;48.836;9.172;2023-07-24T05:07:32;6.57;;;3.23;;
7150;SDS011;3617;48.836;9.172;2023-07-24T05:09:58;9.10;;;3.80;;
7150;SDS011;3617;48.836;9.172;2023-07-24T05:12:24;6.47;;;3.63;;
7150;SDS011;3617;48.836;9.172;2023-07-24T05:14:50;6.87;;;3.63;;
7150;SDS011;3617;48.836;9.172;2023-07-24T05:17:16;6.17;;;2.97;;
7150;SDS011;3617;48.836;9.172;2023-07-24T05:19:42;6.17;;;3.27;;
7150;SDS011;3617;48.836;9.172;2023-07-24T05:22:08;5.80;;;3.43;;
7150;SDS011;3617;48.836;9.172;2023-07-24T05:24:35;5.67;;;3.07;;
7150;SDS011;3617;48.836;9.172;2023-07-24T05:27:03;5.53;;;3.20;;
7150;SDS011;3617;48.836;9.172;2023-07-24T05:29:29;7.27;;;3.57;;
7150;SDS011;3617;48.836;9.172;2023-07-24T05:31:55;6.30;;;3.07;;
7150;SDS011;3617;48.836;9.172;2023-07-24T05:34:21;5.43;;;3.30;;
7150;SDS011;3617;48.836;9.172;2023-07-24T05:36:47;6.33;;;3.43;;
7150;SDS011;3617;48.836;9.172;2023-07-24T05:39:13;8.07;;;3.63;;
7150;SDS011;3617;48.836;9.172;2023-07-24T05:41:39;7.43;;;4.03;;
7150;SDS011;3617;48.836;9.172;2023-07-24T05:44:05;8.33;;;3.43;;
7150;SDS011;3617;48.836;9.172;2023-07-24T05:46:31;6.50;;;3.50;;
7150;SDS011;3617;48.836;9.172;2023-07-24T05:48:57;6.37;;;3.57;;
7150;SDS011;3617;48.836;9.172;2023-07-24T05:51:25;5.57;;;3.40;;
7150;SDS011;3617;48.836;9.172;2023-07-24T05:53:51;8.33;;;3.63;;
7150;SDS011;3617;48.836;9.172;2023-07-24T05:56:17;6.13;;;3.10;;
7150;SDS011;3617;48.836;9.172;2023-07-24T05:58:43;7.03;;;3.80;;
7150;SDS011;3617;48.836;9.172;2023-07-24T06:01:09;7.77;;;3.77;;
7150;SDS011;3617;48.836;9.172;2023-07-24T06:03:35;6.90;;;3.70;;
7150;SDS011;3617;48.836;9.172;2023-07-24T06:06:01;8.23;;;3.63;;
7150;SDS011;3617;48.836;9.172;2023-07-24T06:08:27;6.67;;;3.70;;
7150;SDS011;3617;48.836;9.172;2023-07-24T06:10:53;5.47;;;3.20;;
7150;SDS011;3617;48.836;9.172;2023-07-24T06:13:19;4.63;;;3.07;;
7150;SDS011;3617;48.836;9.172;2023-07-24T06:15:49;7.10;;;4.13;;
7150;SDS011;3617;48.836;9.172;2023-07-24T06:18:15;5.97;;;3.23;;
7150;SDS011;3617;48.836;9.172;2023-07-24T06:20:41;7.03;;;3.40;;
7150;SDS011;3617;48.836;9.172;2023-07-24T06:23:07;5.80;;;3.40;;
7150;SDS011;3617;48.836;9.172;2023-07-24T06:25:33;7.43;;;4.23;;
7150;SDS011;3617;48.836;9.172;2023-07-24T06:27:59;7.27;;;3.87;;
7150;SDS011;3617;48.836;9.172;2023-07-24T06:30:25;7.50;;;4.35;;
7150;SDS011;3617;48.836;9.172;2023-07-24T06:32:51;8.43;;;3.37;;
7150;SDS011;3617;48.836;9.172;2023-07-24T06:35:17;5.70;;;3.13;;
7150;SDS011;3617;48.836;9.172;2023-07-24T06:37:43;5.00;;;2.80;;
7150;SDS011;3617;48.836;9.172;2023-07-24T06:40:10;5.53;;;3.53;;
7150;SDS011;3617;48.836;9.172;2023-07-24T06:42:36;6.93;;;3.10;;
7150;SDS011;3617;48.836;9.172;2023-07-24T06:45:02;7.23;;;3.40;;
7150;SDS011;3617;48.836;9.172;2023-07-24T06:47:29;7.80;;;3.80;;
7150;SDS011;3617;48.836;9.172;2023-07-24T06:49:55;6.25;;;3.50;;
7150;SDS011;3617;48.836;9.172;2023-07-24T06:52:21;7.17;;;3.53;;
7150;SDS011;3617;48.836;9.172;2023-07-24T06:54:47;6.10;;;3.63;;
7150;SDS011;3617;48.836;9.172;2023-07-24T06:57:12;6.85;;;3.42;;
7150;SDS011;3617;48.836;9.172;2023-07-24T06:59:38;6.47;;;3.50;;
7150;SDS011;3617;48.836;9.172;2023-07-24T07:02:05;5.85;;;3.15;;
7150;SDS011;3617;48.836;9.172;2023-07-24T07:04:31;4.80;;;3.27;;
7150;SDS011;3617;48.836;9.172;2023-07-24T07:06:57;6.63;;;3.47;;
7150;SDS011;3617;48.836;9.172;2023-07-24T07:09:23;5.88;;;3.83;;
7150;SDS011;3617;48.836;9.172;2023-07-24T07:11:49;7.53;;;3.45;;
7150;SDS011;3617;48.836;9.172;2023-07-24T07:14:15;5.55;;;3.25;;
7150;SDS011;3617;48.836;9.172;2023-07-24T07:16:41;5.10;;;2.78;;
7150;SDS011;3617;48.836;9.172;2023-07-24T07:19:07;7.25;;;3.38;;
7150;SDS011;3617;48.836;9.172;2023-07-24T07:21:34;5.93;;;3.13;;
7150;SDS011;3617;48.836;9.172;2023-07-24T07:24:00;7.10;;;3.45;;
7150;SDS011;3617;48.836;9.172;2023-07-24T07:26:26;6.07;;;3.45;;
7150;SDS011;3617;48.836;9.172;2023-07-24T07:28:54;6.57;;;3.38;;
7150;SDS011;3617;48.836;9.172;2023-07-24T07:31:20;5.03;;;2.92;;
7150;SDS011;3617;48.836;9.172;2023-07-24T07:33:46;5.60;;;3.22;;
7150;SDS011;3617;48.836;9.172;2023-07-24T07:36:13;5.90;;;3.25;;
7150;SDS011;3617;48.836;9.172;2023-07-24T07:38:39;6.63;;;3.45;;
7150;SDS011;3617;48.836;9.172;2023-07-24T07:41:05;5.07;;;2.97;;
7150;SDS011;3617;48.836;9.172;2023-07-24T07:43:31;6.65;;;3.08;;
7150;SDS011;3617;48.836;9.172;2023-07-24T07:45:57;5.05;;;2.97;;
7150;SDS011;3617;48.836;9.172;2023-07-24T07:48:24;5.97;;;2.83;;
7150;SDS011;3617;48.836;9.172;2023-07-24T07:50:50;6.28;;;3.47;;
7150;SDS011;3617;48.836;9.172;2023-07-24T07:53:16;6.53;;;3.20;;
7150;SDS011;3617;48.836;9.172;2023-07-24T07:55:42;6.22;;;3.65;;
7150;SDS011;3617;48.836;9.172;2023-07-24T07:58:08;6.07;;;3.38;;
7150;SDS011;3617;48.836;9.172;2023-07-24T08:00:35;7.75;;;3.67;;
7150;SDS011;3617;48.836;9.172;2023-07-24T08:03:01;7.25;;;3.25;;
7150;SDS011;3617;48.836;9.172;2023-07-24T08:05:27;6.30;;;3.67;;
7150;SDS011;3617;48.836;9.172;2023-07-24T08:07:53;6.32;;;3.42;;
7150;SDS011;3617;48.836;9.172;2023-07-24T08:10:19;6.68;;;3.92;;
7150;SDS011;3617;48.836;9.172;2023-07-24T08:12:45;5.45;;;3.47;;
7150;SDS011;3617;48.836;9.172;2023-07-24T08:15:11;7.15;;;3.90;;
7150;SDS011;3617;48.836;9.172;2023-07-24T08:17:37;8.23;;;3.90;;
7150;SDS011;3617;48.836;9.172;2023-07-24T08:20:03;6.50;;;3.65;;
7150;SDS011;3617;48.836;9.172;2023-07-24T08:22:29;5.32;;;3.20;;
7150;SDS011;3617;48.836;9.172;2023-07-24T08:24:55;6.32;;;3.72;;
7150;SDS011;3617;48.836;9.172;2023-07-24T08:27:21;9.10;;;3.47;;
7150;SDS011;3617;48.836;9.172;2023-07-24T08:29:50;8.40;;;4.05;;
7150;SDS011;3617;48.836;9.172;2023-07-24T08:32:17;7.25;;;3.20;;
7150;SDS011;3617;48.836;9.172;2023-07-24T08:34:43;5.60;;;3.83;;
7150;SDS011;3617;48.836;9.172;2023-07-24T08:37:09;5.63;;;3.60;;
7150;SDS011;3617;48.836;9.172;2023-07-24T08:39:35;7.67;;;4.40;;
7150;SDS011;3617;48.836;9.172;2023-07-24T08:42:07;9.00;;;4.03;;
7150;SDS011;3617;48.836;9.172;2023-07-24T08:44:33;8.03;;;3.63;;
7150;SDS011;3617;48.836;9.172;2023-07-24T08:46:59;6.27;;;4.10;;
7150;SDS011;3617;48.836;9.172;2023-07-24T08:49:26;7.80;;;4.07;;
7150;SDS011;3617;48.836;9.172;2023-07-24T08:51:52;8.38;;;3.75;;
7150;SDS011;3617;48.836;9.172;2023-07-24T08:54:19;7.70;;;4.17;;
7150;SDS011;3617;48.836;9.172;2023-07-24T08:56:46;7.78;;;3.75;;
7150;SDS011;3617;48.836;9.172;2023-07-24T08:59:15;8.70;;;4.63;;
7150;SDS011;3617;48.836;9.172;2023-07-24T09:01:41;7.83;;;3.73;;
7150;SDS011;3617;48.836;9.172;2023-07-24T09:04:07;9.00;;;4.10;;
7150;SDS011;3617;48.836;9.172;2023-07-24T09:06:33;6.67;;;3.97;;
7150;SDS011;3617;48.836;9.172;2023-07-24T09:08:59;8.13;;;3.73;;
7150;SDS011;3617;48.836;9.172;2023-07-24T09:11:25;6.67;;;4.13;;
7150;SDS011;3617;48.836;9.172;2023-07-24T09:13:51;6.10;;;3.33;;
7150;SDS011;3617;48.836;9.172;2023-07-24T09:16:21;8.83;;;3.73;;
7150;SDS011;3617;48.836;9.172;2023-07-24T09:18:48;8.93;;;4.77;;
7150;SDS011;3617;48.836;9.172;2023-07-24T09:21:16;7.40;;;3.92;;
7150;SDS011;3617;48.836;9.172;2023-07-24T09:23:52;7.28;;;3.55;;
7150;SDS011;3617;48.836;9.172;2023-07-24T09:26:18;7.03;;;3.60;;
7150;SDS011;3617;48.836;9.172;2023-07-24T09:28:51;5.60;;;3.10;;
7150;SDS011;3617;48.836;9.172;2023-07-24T09:31:18;5.35;;;2.92;;
7150;SDS011;3617;48.836;9.172;2023-07-24T09:33:44;6.15;;;2.78;;
7150;SDS011;3617;48.836;9.172;2023-07-24T09:36:10;6.93;;;3.97;;
7150;SDS011;3617;48.836;9.172;2023-07-24T09:38:37;6.07;;;3.63;;
7150;SDS011;3617;48.836;9.172;2023-07-24T09:41:04;6.07;;;3.33;;
7150;SDS011;3617;48.836;9.172;2023-07-24T09:43:30;6.70;;;3.40;;
7150;SDS011;3617;48.836;9.172;2023-07-24T09:45:57;5.47;;;3.38;;
7150;SDS011;3617;48.836;9.172;2023-07-24T09:48:24;7.30;;;3.45;;
7150;SDS011;3617;48.836;9.172;2023-07-24T09:50:54;4.97;;;2.88;;
7150;SDS011;3617;48.836;9.172;2023-07-24T09:56:22;7.28;;;3.65;;
7150;SDS011;3617;48.836;9.172;2023-07-24T09:58:48;5.60;;;3.83;;
7150;SDS011;3617;48.836;9.172;2023-07-24T10:01:19;5.10;;;3.53;;
7150;SDS011;3617;48.836;9.172;2023-07-24T10:03:49;7.65;;;4.30;;
7150;SDS011;3617;48.836;9.172;2023-07-24T10:06:16;5.30;;;3.28;;
7150;SDS011;3617;48.836;9.172;2023-07-24T10:08:42;6.97;;;3.90;;
7150;SDS011;3617;48.836;9.172;2023-07-24T10:11:09;6.03;;;3.50;;
7150;SDS011;3617;48.836;9.172;2023-07-24T10:13:36;7.47;;;4.00;;
7150;SDS011;3617;48.836;9.172;2023-07-24T10:16:03;5.35;;;3.22;;
7150;SDS011;3617;48.836;9.172;2023-07-24T10:18:31;4.80;;;3.00;;
7150;SDS011;3617;48.836;9.172;2023-07-24T10:21:05;6.47;;;3.50;;
7150;SDS011;3617;48.836;9.172;2023-07-24T10:23:33;7.55;;;3.47;;
7150;SDS011;3617;48.836;9.172;2023-07-24T10:26:05;5.05;;;2.85;;
7150;SDS011;3617;48.836;9.172;2023-07-24T10:28:32;4.78;;;3.10;;
7150;SDS011;3617;48.836;9.172;2023-07-24T10:31:00;5.05;;;3.25;;
7150;SDS011;3617;48.836;9.172;2023-07-24T10:33:29;4.60;;;2.97;;
7150;SDS011;3617;48.836;9.172;2023-07-24T10:36:03;4.47;;;2.65;;
7150;SDS011;3617;48.836;9.172;2023-07-24T10:38:36;5.15;;;2.95;;
7150;SDS011;3617;48.836;9.172;2023-07-24T10:41:03;5.18;;;3.17;;
7150;SDS011;3617;48.836;9.172;2023-07-24T10:43:39;4.35;;;2.80;;
7150;SDS011;3617;48.836;9.172;2023-07-24T10:46:05;4.90;;;2.70;;
7150;SDS011;3617;48.836;9.172;2023-07-24T10:48:31;4.22;;;2.60;;
7150;SDS011;3617;48.836;9.172;2023-07-24T10:50:57;4.60;;;2.90;;
7150;SDS011;3617;48.836;9.172;2023-07-24T10:53:23;6.47;;;2.88;;
7150;SDS011;3617;48.836;9.172;2023-07-24T10:55:51;6.20;;;2.60;;
7150;SDS011;3617;48.836;9.172;2023-07-24T10:58:17;10.98;;;3.10;;
7150;SDS011;3617;48.836;9.172;2023-07-24T11:00:43;4.75;;;2.63;;
7150;SDS011;3617;48.836;9.172;2023-07-24T11:03:10;5.85;;;2.95;;
7150;SDS011;3617;48.836;9.172;2023-07-24T11:05:39;4.10;;;2.33;;
7150;SDS011;3617;48.836;9.172;2023-07-24T11:08:15;4.73;;;2.47;;
7150;SDS011;3617;48.836;9.172;2023-07-24T11:10:45;5.90;;;2.93;;
7150;SDS011;3617;48.836;9.172;2023-07-24T11:13:15;5.67;;;2.37;;
7150;SDS011;3617;48.836;9.172;2023-07-24T11:15:41;3.83;;;2.55;;
7150;SDS011;3617;48.836;9.172;2023-07-24T11:18:07;5.13;;;3.10;;
7150;SDS011;3617;48.836;9.172;2023-07-24T11:20:36;4.50;;;2.80;;
7150;SDS011;3617;48.836;9.172;2023-07-24T11:23:02;5.07;;;3.13;;
7150;SDS011;3617;48.836;9.172;2023-07-24T11:25:28;3.97;;;2.83;;
7150;SDS011;3617;48.836;9.172;2023-07-24T11:27:54;4.47;;;2.90;;
7150;SDS011;3617;48.836;9.172;2023-07-24T11:30:20;5.63;;;2.80;;
7150;SDS011;3617;48.836;9.172;2023-07-24T11:32:47;5.50;;;3.17;;
7150;SDS011;3617;48.836;9.172;2023-07-24T11:35:13;5.97;;;3.00;;
7150;SDS011;3617;48.836;9.172;2023-07-24T11:37:40;5.00;;;2.87;;
7150;SDS011;3617;48.836;9.172;2023-07-24T11:40:06;6.00;;;3.30;;
7150;SDS011;3617;48.836;9.172;2023-07-24T11:42:39;3.87;;;2.40;;
7150;SDS011;3617;48.836;9.172;2023-07-24T11:45:05;6.23;;;3.43;;
7150;SDS011;3617;48.836;9.172;2023-07-24T11:47:40;7.10;;;3.83;;
7150;SDS011;3617;48.836;9.172;2023-07-24T11:50:06;5.10;;;3.45;;
7150;SDS011;3617;48.836;9.172;2023-07-24T11:52:39;6.65;;;3.92;;
7150;SDS011;3617;48.836;9.172;2023-07-24T11:55:06;6.13;;;3.30;;
7150;SDS011;3617;48.836;9.172;2023-07-24T11:57:32;5.53;;;3.38;;
7150;SDS011;3617;48.836;9.172;2023-07-24T11:59:58;5.83;;;2.67;;
7150;SDS011;3617;48.836;9.172;2023-07-24T12:02:27;3.73;;;2.30;;
7150;SDS011;3617;48.836;9.172;2023-07-24T12:04:56;5.80;;;3.03;;
7150;SDS011;3617;48.836;9.172;2023-07-24T12:07:33;6.43;;;3.00;;
7150;SDS011;3617;48.836;9.172;2023-07-24T12:09:59;4.75;;;3.03;;
7150;SDS011;3617;48.836;9.172;2023-07-24T12:12:36;5.43;;;2.83;;
7150;SDS011;3617;48.836;9.172;2023-07-24T12:15:02;4.07;;;3.07;;
7150;SDS011;3617;48.836;9.172;2023-07-24T12:17:28;3.87;;;2.47;;
7150;SDS011;3617;48.836;9.172;2023-07-24T12:19:54;5.67;;;2.60;;
7150;SDS011;3617;48.836;9.172;2023-07-24T12:22:20;3.85;;;2.80;;
7150;SDS011;3617;48.836;9.172;2023-07-24T12:24:47;5.65;;;3.45;;
7150;SDS011;3617;48.836;9.172;2023-07-24T12:27:13;8.07;;;3.33;;
7150;SDS011;3617;48.836;9.172;2023-07-24T12:29:39;3.90;;;2.80;;
7150;SDS011;3617;48.836;9.172;2023-07-24T12:32:05;4.38;;;2.45;;
7150;SDS011;3617;48.836;9.172;2023-07-24T12:34:31;4.43;;;3.00;;
7150;SDS011;3617;48.836;9.172;2023-07-24T12:36:57;4.68;;;2.50;;
7150;SDS011;3617;48.836;9.172;2023-07-24T12:39:23;3.50;;;2.22;;
7150;SDS011;3617;48.836;9.172;2023-07-24T12:41:49;3.03;;;2.40;;
7150;SDS011;3617;48.836;9.172;2023-07-24T12:44:15;4.22;;;2.83;;
7150;SDS011;3617;48.836;9.172;2023-07-24T12:46:41;4.03;;;2.70;;
7150;SDS011;3617;48.836;9.172;2023-07-24T12:49:07;4.50;;;2.80;;
7150;SDS011;3617;48.836;9.172;2023-07-24T12:51:33;5.78;;;2.53;;
7150;SDS011;3617;48.836;9.172;2023-07-24T12:53:59;4.05;;;2.90;;
7150;SDS011;3617;48.836;9.172;2023-07-24T12:56:25;6.25;;;2.90;;
7150;SDS011;3617;48.836;9.172;2023-07-24T12:58:51;5.22;;;2.90;;
7150;SDS011;3617;48.836;9.172;2023-07-24T13:01:17;5.95;;;3.28;;
7150;SDS011;3617;48.836;9.172;2023-07-24T13:03:43;3.88;;;2.50;;
7150;SDS011;3617;48.836;9.172;2023-07-24T13:06:09;3.63;;;2.63;;
7150;SDS011;3617;48.836;9.172;2023-07-24T13:08:35;5.65;;;3.22;;
7150;SDS011;3617;48.836;9.172;2023-07-24T13:11:01;5.22;;;2.72;;
7150;SDS011;3617;48.836;9.172;2023-07-24T13:13:27;4.57;;;2.63;;
7150;SDS011;3617;48.836;9.172;2023-07-24T13:15:53;4.10;;;2.70;;
7150;SDS011;3617;48.836;9.172;2023-07-24T13:18:19;3.85;;;2.65;;
7150;SDS011;3617;48.836;9.172;2023-07-24T13:20:45;5.88;;;3.05;;
7150;SDS011;3617;48.836;9.172;2023-07-24T13:23:11;7.05;;;2.70;;
7150;SDS011;3617;48.836;9.172;2023-07-24T13:25:37;3.95;;;2.50;;
7150;SDS011;3617;48.836;9.172;2023-07-24T13:28:03;4.25;;;2.58;;
7150;SDS011;3617;48.836;9.172;2023-07-24T13:30:29;4.30;;;2.55;;
7150;SDS011;3617;48.836;9.172;2023-07-24T13:32:55;3.55;;;2.47;;
7150;SDS011;3617;48.836;9.172;2023-07-24T13:35:21;4.25;;;2.72;;
7150;SDS011;3617;48.836;9.172;2023-07-24T13:37:47;5.05;;;2.53;;
7150;SDS011;3617;48.836;9.172;2023-07-24T13:40:13;4.63;;;2.70;;
7150;SDS011;3617;48.836;9.172;2023-07-24T13:42:39;4.75;;;2.33;;
7150;SDS011;3617;48.836;9.172;2023-07-24T13:45:06;5.88;;;3.00;;
7150;SDS011;3617;48.836;9.172;2023-07-24T13:47:32;3.75;;;2.50;;
7150;SDS011;3617;48.836;9.172;2023-07-24T13:49:58;4.47;;;2.78;;
7150;SDS011;3617;48.836;9.172;2023-07-24T13:52:26;4.40;;;3.08;;
7150;SDS011;3617;48.836;9.172;2023-07-24T13:54:52;5.28;;;2.80;;
7150;SDS011;3617;48.836;9.172;2023-07-24T13:57:18;4.78;;;2.65;;
7150;SDS011;3617;48.836;9.172;2023-07-24T13:59:44;3.25;;;2.53;;
7150;SDS011;3617;48.836;9.172;2023-07-24T14:02:10;4.32;;;2.90;;
7150;SDS011;3617;48.836;9.172;2023-07-24T14:04:37;3.45;;;2.42;;
7150;SDS011;3617;48.836;9.172;2023-07-24T14:07:03;4.57;;;2.75;;
7150;SDS011;3617;48.836;9.172;2023-07-24T14:09:29;5.20;;;2.85;;
7150;SDS011;3617;48.836;9.172;2023-07-24T14:11:57;2.60;;;2.15;;
7150;SDS011;3617;48.836;9.172;2023-07-24T14:14:23;5.97;;;2.63;;
7150;SDS011;3617;48.836;9.172;2023-07-24T14:16:50;4.05;;;2.55;;
7150;SDS011;3617;48.836;9.172;2023-07-24T14:19:16;3.90;;;2.35;;
7150;SDS011;3617;48.836;9.172;2023-07-24T14:21:42;3.28;;;2.20;;
7150;SDS011;3617;48.836;9.172;2023-07-24T14:24:08;4.30;;;2.20;;
7150;SDS011;3617;48.836;9.172;2023-07-24T14:26:34;4.78;;;2.45;;
7150;SDS011;3617;48.836;9.172;2023-07-24T14:29:02;2.33;;;1.75;;
7150;SDS011;3617;48.836;9.172;2023-07-24T14:31:28;3.00;;;2.00;;
7150;SDS011;3617;48.836;9.172;2023-07-24T14:33:54;4.05;;;2.38;;
7150;SDS011;3617;48.836;9.172;2023-07-24T14:36:20;3.38;;;1.90;;
7150;SDS011;3617;48.836;9.172;2023-07-24T14:38:46;3.83;;;1.98;;
7150;SDS011;3617;48.836;9.172;2023-07-24T14:41:12;5.85;;;1.98;;
7150;SDS011;3617;48.836;9.172;2023-07-24T14:43:40;3.00;;;2.00;;
7150;SDS011;3617;48.836;9.172;2023-07-24T14:46:06;2.75;;;1.80;;
7150;SDS011;3617;48.836;9.172;2023-07-24T14:48:32;3.63;;;1.98;;
7150;SDS011;3617;48.836;9.172;2023-07-24T14:50:58;2.95;;;1.95;;
7150;SDS011;3617;48.836;9.172;2023-07-24T14:53:24;4.03;;;2.13;;
7150;SDS011;3617;48.836;9.172;2023-07-24T14:55:50;2.95;;;1.95;;
7150;SDS011;3617;48.836;9.172;2023-07-24T14:58:16;2.90;;;2.03;;
7150;SDS011;3617;48.836;9.172;2023-07-24T15:00:42;2.63;;;1.83;;
7150;SDS011;3617;48.836;9.172;2023-07-24T15:03:08;3.38;;;1.90;;
7150;SDS011;3617;48.836;9.172;2023-07-24T15:05:34;3.50;;;2.00;;
7150;SDS011;3617;48.836;9.172;2023-07-24T15:08:00;3.60;;;1.90;;
7150;SDS011;3617;48.836;9.172;2023-07-24T15:10:26;2.60;;;1.70;;
7150;SDS011;3617;48.836;9.172;2023-07-24T15:12:52;2.70;;;1.52;;
7150;SDS011;3617;48.836;9.172;2023-07-24T15:15:18;2.13;;;1.63;;
7150;SDS011;3617;48.836;9.172;2023-07-24T15:17:44;2.95;;;1.80;;
7150;SDS011;3617;48.836;9.172;2023-07-24T15:20:10;4.00;;;2.05;;
7150;SDS011;3617;48.836;9.172;2023-07-24T15:22:38;2.55;;;1.60;;